Dati Storici

Data ora Umidita' aria (%) Temperatura aria (°C) Rad globale (W/m²) Gonioanemometro (°) Tacoanemometro (m/s) Pioggia (mm)
17-10-2012 18:40 70.6 % 16.017 3.883 57.206 0.687 0
17-10-2012 18:30 69.4 % 16.08 5.935 74.611 0.436 0
17-10-2012 18:20 69.2 % 16.246 5.794 73.769 0.025 0
17-10-2012 18:10 68.6 % 16.348 9.64 106.97 0.34 0
17-10-2012 18:00 68.6 % 16.407 14.684 98.621 0.559 0
17-10-2012 17:50 69.2 % 16.51 18.949 118.569 0.251 0
17-10-2012 17:40 68.7 % 16.656 24.98 133.333 0.519 0
17-10-2012 17:30 68 % 16.739 28.347 148.868 0.287 0
17-10-2012 17:20 65.6 % 16.99 27.008 96.628 0.822 0
17-10-2012 17:10 64.1 % 17.174 30.461 130.697 0.357 0
17-10-2012 17:00 62.4 % 17.308 57.441 127.96 0.532 0
17-10-2012 16:50 61.9 % 17.552 71.697 116.441 0.405 0
17-10-2012 16:40 60.7 % 17.573 71.76 57.913 0.628 0
17-10-2012 16:30 61 % 17.65 129.819 143.462 0.552 0
17-10-2012 16:20 61.2 % 17.54 113.772 122.505 0.681 0
17-10-2012 16:10 60.2 % 17.348 97.549 119.885 0.911 0
17-10-2012 16:00 61 % 17.544 112.564 96.704 0.29 0
17-10-2012 15:50 61.7 % 17.741 125.08 140.948 0.557 0
17-10-2012 15:40 60 % 17.818 135.504 124.809 1.049 0
17-10-2012 15:30 59 % 18.05 159.874 110.873 1.381 0

I dati sono presentati in modo automatico a scopo informativo. In seguito a verifica i dati possono subire modifiche o essere invalidati e non riportati negli archivi definitivi.